Xigaze, China
Current Conditions -  °F | °C
As of 7:50 AM on Saturday 25 Oct 2014 (Local Time) from VNKT Reporting Station
Few Clouds Few Clouds  
Wind Chill: 55°   Ceiling: Unl
Heat Index: 55°   Visibility: 4mi
Dew Point: 52°   Wind: 0mph
Humidity: 88%   Direction: NA
Pressure: 30.12"   Gusts: NA
Location:  29.25°N, 88.87°E
Report Text: VNKT 242350Z 00000KT 6000 FEW020 13/11 Q1020 NOSIG
Loading
Personal Weather Stations






























Interactive Weather Map
Tropical Storm Tracking
New forecast layout! Learn more

10-Day Weather Forecast

Advertisements
Track Severe Weather on mobile